Latest Weather Observations for Cape Nelson

IDV60801

Issued at 4:05 am EDT Friday 31 October 2014 (issued every 30 minutes, with the page automatically refreshed every 10 minutes)

About weather observations | Map of weather stations | Latest weather observations for VIC | Other Formats
Station Details ID: 090184 Name: CAPE NELSON LIGHTHOUSE Lat: -38.43 Lon: 141.54 Height: 45.4 m
Data from the previous 72 hours. | See also: Recent months at Cape Nelson
Date/Time
EDT
Temp
°C
App
Temp
°C
Dew
Point
Rel
Hum
%
Delta-T
°C
Wind Press
QNH
hPa
Press
MSL
hPa
Rain
since 9 am
mm
Dir
 
Spd
km/h
Gust
km/h
Spd
kts
Gust
kts
31/04:00am 10.9 8.1 8.5 85 1.2 NNE 13 22 7 12 1009.1 1009.1 0.0
31/03:30am 10.0 7.1 8.3 89 0.8 NNE 13 20 7 11 1009.7 1009.7 0.0
31/03:00am 9.5 6.5 7.6 88 0.9 N 13 19 7 10 1010.2 1010.2 0.0
31/02:30am 9.1 6.0 7.1 87 0.9 N 13 17 7 9 1010.7 1010.7 0.0
31/02:00am 9.4 6.3 7.3 87 1.0 N 13 17 7 9 1011.3 1011.3 0.0
31/01:30am 9.2 6.0 6.8 85 1.1 N 13 15 7 8 1012.0 1012.0 0.0
31/01:00am 9.7 7.0 7.3 85 1.1 N 11 13 6 7 1012.6 1012.6 0.0
31/12:30am 10.0 7.2 7.1 82 1.4 N 11 13 6 7 1012.6 1012.6 0.0
31/12:00am 11.2 9.2 7.3 77 1.9 N 7 9 4 5 1012.8 1012.8 0.0
 
Date/Time
EDT
Temp
°C
App
Temp
°C
Dew
Point
Rel
Hum
%
Delta-T
°C
Wind Press
QNH
hPa
Press
MSL
hPa
Rain
since 9 am
mm
Dir
 
Spd
km/h
Gust
km/h
Spd
kts
Gust
kts
30/11:30pm 12.9 10.9 8.6 75 2.2 WNW 9 13 5 7 1013.0 1013.0 0.0
30/11:00pm 13.8 11.2 9.5 75 2.2 W 13 17 7 9 1013.4 1013.4 0.0
30/10:30pm 13.8 10.4 9.0 73 2.4 W 17 24 9 13 1013.8 1013.8 0.0
30/10:00pm 13.9 9.5 9.1 73 2.4 W 22 30 12 16 1014.0 1014.0 0.0
30/09:30pm 13.7 10.1 8.5 71 2.6 WNW 17 26 9 14 1013.6 1013.6 0.0
30/09:00pm 13.8 9.7 8.6 71 2.6 W 20 28 11 15 1013.6 1013.6 0.0
30/08:30pm 13.9 9.1 8.7 71 2.6 W 24 30 13 16 1013.5 1013.5 0.0
30/08:00pm 13.9 8.7 8.7 71 2.6 W 26 32 14 17 1013.2 1013.2 0.0
30/07:30pm 14.4 10.1 9.2 71 2.7 W 22 30 12 16 1013.2 1013.2 0.0
30/07:00pm 14.7 11.0 9.3 70 2.8 W 19 28 10 15 1013.1 1013.1 0.0
30/06:30pm 15.0 11.3 10.2 73 2.5 W 20 30 11 16 1013.1 1013.1 0.0
30/06:00pm 15.2 11.6 10.4 73 2.5 W 20 30 11 16 1013.2 1013.2 0.0
30/05:30pm 15.3 11.7 10.7 74 2.4 W 20 28 11 15 1013.4 1013.4 0.0
30/05:00pm 15.5 12.4 10.3 71 2.7 W 17 28 9 15 1013.6 1013.6 0.0
30/04:30pm 15.7 12.6 10.2 70 2.9 W 17 26 9 14 1013.8 1013.8 0.0
30/04:00pm 15.0 11.4 10.6 75 2.3 W 20 26 11 14 1014.0 1014.0 0.0
30/03:30pm 15.4 11.8 10.4 72 2.6 W 20 30 11 16 1014.1 1014.1 0.0
30/03:00pm 15.4 11.7 10.2 71 2.7 W 20 30 11 16 1014.3 1014.3 0.0
30/02:30pm 15.1 11.4 10.3 73 2.5 W 20 30 11 16 1014.5 1014.5 0.0
30/02:00pm 15.4 10.4 9.5 68 3.1 W 26 37 14 20 1014.8 1014.8 0.0
30/01:30pm 16.2 11.5 9.4 64 3.5 WNW 24 32 13 17 1014.7 1014.7 0.0
30/01:00pm 15.9 11.7 9.6 66 3.3 W 22 30 12 16 1014.8 1014.8 0.0
30/12:30pm 15.5 11.8 10.1 70 2.8 W 20 30 11 16 1015.0 1015.0 0.0
30/12:00pm 14.6 11.0 9.8 73 2.5 W 19 28 10 15 1015.1 1015.1 0.0
30/11:30am 15.0 11.2 9.8 71 2.7 W 20 35 11 19 1015.4 1015.4 0.0
30/11:00am 15.5 11.9 9.8 69 3.0 W 19 30 10 16 1015.4 1015.4 0.0
30/10:30am 14.2 9.9 9.4 73 2.5 W 22 33 12 18 1015.3 1015.3 0.0
30/10:00am 14.7 11.0 10.1 74 2.4 WNW 20 28 11 15 1015.5 1015.5 0.0
30/09:30am 14.5 12.4 11.1 80 1.8 WNW 13 19 7 10 1015.5 1015.5 0.0
30/09:00am 12.6 8.3 10.7 88 1.0 W 24 35 13 19 1015.7 1015.7 0.0
30/08:30am 13.8 10.2 10.4 80 1.8 WNW 20 30 11 16 1015.5 1015.5 0.0
30/08:00am 14.1 11.3 10.1 77 2.1 W 15 24 8 13 1015.0 1015.0 0.0
30/07:30am 13.8 10.5 9.6 76 2.2 W 17 22 9 12 1014.4 1014.4 0.0
30/07:00am 13.8 10.2 10.4 80 1.8 W 20 30 11 16 1014.3 1014.3 0.0
30/06:30am 13.7 8.4 9.7 77 2.1 W 28 37 15 20 1014.4 1014.4 0.0
30/06:00am 14.1 10.7 10.5 79 1.9 W 19 32 10 17 1014.2 1014.2 0.0
30/05:30am 13.9 9.9 8.9 72 2.5 W 20 28 11 15 1013.8 1013.8 0.0
30/05:00am 14.0 9.1 8.6 70 2.7 W 24 33 13 18 1014.0 1014.0 0.0
30/04:30am 13.7 8.9 7.5 66 3.0 W 22 37 12 20 1014.0 1014.0 0.0
30/04:00am 13.7 8.2 7.7 67 3.0 W 26 39 14 21 1014.2 1014.2 0.0
30/03:30am 14.0 8.8 8.8 71 2.6 W 26 35 14 19 1014.3 1014.3 0.0
30/03:00am 13.9 7.3 7.9 67 3.0 W 32 43 17 23 1014.5 1014.5 0.0
30/02:30am 13.8 8.9 8.4 70 2.7 W 24 41 13 22 1014.4 1014.4 0.0
30/02:00am 13.8 9.3 8.6 71 2.6 W 22 35 12 19 1014.6 1014.6 0.0
30/01:30am 13.5 9.0 8.4 71 2.6 W 22 35 12 19 1014.8 1014.8 0.0
30/01:00am 13.7 9.0 9.2 74 2.3 W 24 37 13 20 1015.2 1015.2 0.0
30/12:30am 13.5 10.3 9.9 79 1.9 W 17 22 9 12 1015.4 1015.4 0.0
30/12:00am 13.5 9.6 9.6 77 2.0 W 20 33 11 18 1015.8 1015.8 0.0
 
Date/Time
EDT
Temp
°C
App
Temp
°C
Dew
Point
Rel
Hum
%
Delta-T
°C
Wind Press
QNH
hPa
Press
MSL
hPa
Rain
since 9 am
mm
Dir
 
Spd
km/h
Gust
km/h
Spd
kts
Gust
kts
29/11:30pm 13.2 8.6 9.8 80 1.7 W 24 33 13 18 1016.0 1016.0 0.0
29/11:00pm 13.4 8.9 11.3 87 1.1 W 26 43 14 23 1016.3 1016.3 0.0
29/10:30pm 13.9 10.1 11.1 83 1.5 WNW 22 32 12 17 1016.5 1016.5 0.0
29/10:00pm 13.9 9.6 10.7 81 1.7 WNW 24 33 13 18 1016.4 1016.4 0.0
29/09:30pm 14.0 10.2 11.0 82 1.6 W 22 35 12 19 1016.3 1016.3 0.0
29/09:00pm 13.6 8.9 10.6 82 1.6 WNW 26 35 14 19 1016.3 1016.3 0.0
29/08:30pm 14.0 9.9 11.3 84 1.4 WNW 24 35 13 19 1016.2 1016.2 0.0
29/08:00pm 13.8 8.8 11.1 84 1.4 WNW 28 37 15 20 1016.3 1016.3 0.0
29/07:30pm 13.8 9.3 11.5 86 1.2 W 26 37 14 20 1016.2 1016.2 0.0
29/07:03pm 13.9 9.0 11.2 84 1.4 W 28 50 15 27 1016.0 1016.0 0.0
29/07:00pm 14.1 9.6 11.4 84 1.4 W 26 41 14 22 1016.0 1016.0 0.0
29/06:36pm 14.1 8.9 11.6 85 1.3 W 30 48 16 26 1015.8 1015.8 0.0
29/06:30pm 14.0 9.5 11.5 85 1.3 W 26 39 14 21 1015.9 1015.9 0.0
29/06:04pm 15.6 9.5 11.8 78 2.1 WNW 35 54 19 29 1016.0 1016.0 0.0
29/06:00pm 15.1 8.1 11.1 77 2.1 WNW 39 54 21 29 1016.0 1016.0 0.0
29/05:40pm 15.2 10.3 11.4 78 2.0 W 28 50 15 27 1015.7 1015.7 0.0
29/05:30pm 15.2 10.8 11.6 79 1.9 W 26 37 14 20 1015.6 1015.6 0.0
29/05:00pm 15.4 9.5 11.0 75 2.3 W 33 52 18 28 1015.6 1015.6 0.0
29/04:42pm 15.9 10.4 11.7 76 2.3 W 32 50 17 27 1015.6 1015.6 0.0
29/04:30pm 15.9 10.7 11.5 75 2.4 W 30 43 16 23 1015.6 1015.6 0.0
29/04:00pm 15.4 10.6 11.8 79 1.9 W 28 48 15 26 1015.7 1015.7 0.0
29/03:37pm 15.6 9.0 11.4 76 2.3 W 37 57 20 31 1015.8 1015.8 0.0
29/03:30pm 15.6 9.8 11.4 76 2.3 W 33 50 18 27 1015.9 1015.9 0.0
29/03:00pm 15.6 9.5 11.8 78 2.1 W 35 56 19 30 1016.1 1016.1 0.0
29/02:53pm 15.7 10.0 11.7 77 2.2 W 33 56 18 30 1016.2 1016.2 0.0
29/02:30pm 16.2 9.9 11.2 72 2.7 W 35 44 19 24 1016.3 1016.3 0.0
29/02:00pm 16.3 10.6 11.2 72 2.7 W 32 41 17 22 1016.4 1016.4 0.0
29/01:30pm 16.0 10.7 11.4 74 2.5 W 30 41 16 22 1016.6 1016.6 0.0
29/01:00pm 18.4 13.2 11.7 65 3.7 WNW 30 41 16 22 1016.8 1016.8 0.0
29/12:30pm 17.4 11.4 10.1 62 3.9 WNW 32 43 17 23 1017.0 1017.0 0.0
29/12:00pm 16.1 11.3 10.2 68 3.1 WNW 26 39 14 21 1017.4 1017.4 0.0
29/11:30am 14.7 10.2 9.9 73 2.5 WNW 24 35 13 19 1017.6 1017.6 0.0
29/11:00am 14.9 10.7 9.7 71 2.7 WNW 22 39 12 21 1017.6 1017.6 0.0
29/10:30am 14.4 10.1 10.6 78 2.0 NW 24 35 13 19 1017.8 1017.8 0.0
29/10:00am 14.1 9.5 9.7 75 2.3 WNW 24 33 13 18 1017.6 1017.6 0.0
29/09:30am 14.0 10.0 9.0 72 2.5 WNW 20 28 11 15 1017.7 1017.7 0.0
29/09:00am 13.9 8.7 8.9 72 2.5 WNW 26 35 14 19 1017.8 1017.8 0.0
29/08:30am 13.3 9.4 9.4 77 2.0 W 20 32 11 17 1017.7 1017.7 0.0
29/08:00am 13.2 9.3 9.5 78 1.9 W 20 33 11 18 1017.6 1017.6 0.0
29/07:30am 13.1 9.4 10.1 82 1.5 W 20 30 11 16 1017.5 1017.5 0.0
29/07:00am 12.9 9.4 10.1 83 1.4 W 19 30 10 16 1017.4 1017.4 0.0
29/06:30am 13.2 9.3 9.5 78 1.9 WNW 20 28 11 15 1017.2 1017.2 0.0
29/06:00am 13.2 8.6 9.5 78 1.9 WNW 24 32 13 17 1016.9 1016.9 0.0
29/05:30am 13.3 9.4 9.5 78 1.9 W 20 33 11 18 1016.8 1016.8 0.0
29/05:00am 13.2 9.2 8.9 75 2.2 W 20 30 11 16 1016.8 1016.8 0.0
29/04:30am 13.1 8.1 8.0 71 2.5 W 24 35 13 19 1016.8 1016.8 0.0
29/04:00am 13.0 9.2 9.1 77 2.0 W 19 28 10 15 1016.8 1016.8 0.0
29/03:30am 13.1 9.0 8.8 75 2.2 W 20 35 11 19 1016.8 1016.8 0.0
29/03:00am 13.0 8.6 8.9 76 2.1 W 22 33 12 18 1017.0 1017.0 0.0
29/02:30am 12.9 7.9 8.0 72 2.4 W 24 32 13 17 1017.1 1017.1 0.0
29/02:00am 12.8 7.5 8.5 75 2.1 W 26 41 14 22 1017.2 1017.2 0.0
29/01:30am 12.2 8.9 9.4 83 1.4 WNW 17 26 9 14 1017.5 1017.5 0.0
29/01:00am 12.4 8.5 9.4 82 1.5 W 20 30 11 16 1017.8 1017.8 0.0
29/12:30am 13.0 8.7 9.4 79 1.8 W 22 30 12 16 1017.7 1017.7 0.0
29/12:00am 12.7 8.8 9.3 80 1.7 W 20 28 11 15 1017.8 1017.8 0.0
 
Date/Time
EDT
Temp
°C
App
Temp
°C
Dew
Point
Rel
Hum
%
Delta-T
°C
Wind Press
QNH
hPa
Press
MSL
hPa
Rain
since 9 am
mm
Dir
 
Spd
km/h
Gust
km/h
Spd
kts
Gust
kts
28/11:30pm 12.6 9.7 9.8 83 1.4 NNE 15 30 8 16 1017.6 1017.6 0.0
28/11:00pm 13.1 8.8 9.4 78 1.9 W 22 30 12 16 1017.7 1017.7 0.0
28/10:30pm 13.0 7.9 9.1 77 2.0 W 26 37 14 20 1017.7 1017.7 0.0
28/10:00pm 13.1 8.4 9.4 78 1.9 W 24 35 13 19 1017.7 1017.7 0.0
28/09:30pm 12.8 9.0 8.9 77 2.0 NW 19 28 10 15 1017.4 1017.4 0.0
28/09:00pm 12.9 8.8 8.8 76 2.1 WNW 20 33 11 18 1017.3 1017.3 0.0
28/08:30pm 12.9 8.5 8.8 76 2.1 NW 22 33 12 18 1017.0 1017.0 0.0
28/08:00pm 12.9 9.1 9.2 78 1.9 N 19 24 10 13 1016.6 1016.6 0.0
28/07:39pm 13.5 7.0 9.0 74 2.3 W 33 54 18 29 1016.4 1016.4 0.0
28/07:30pm 13.5 7.6 9.0 74 2.3 W 30 43 16 23 1016.4 1016.4 0.0
28/07:00pm 13.3 6.7 8.4 72 2.4 W 33 48 18 26 1016.1 1016.1 0.0
28/06:52pm 13.5 7.5 8.8 73 2.4 W 30 48 16 26 1016.1 1016.1 0.0
28/06:30pm 13.5 6.9 7.7 68 2.9 W 32 44 17 24 1015.8 1015.8 0.0
28/06:00pm 13.7 6.7 8.3 70 2.7 W 35 46 19 25 1015.6 1015.6 0.0
28/05:30pm 13.7 5.8 7.9 68 2.9 W 39 50 21 27 1015.7 1015.7 0.0
28/05:00pm 13.9 6.8 7.9 67 3.0 W 35 48 19 26 1015.3 1015.3 0.0
28/04:30pm 13.9 6.6 7.2 64 3.3 W 35 52 19 28 1015.2 1015.2 0.0
28/04:08pm 14.2 6.2 7.5 64 3.3 W 39 57 21 31 1014.9 1014.9 0.0
28/04:00pm 14.1 5.3 7.4 64 3.3 W 43 56 23 30 1014.9 1014.9 0.0
28/03:34pm 14.0 6.4 7.5 65 3.2 W 37 56 20 30 1014.9 1014.9 0.0
28/03:30pm 14.2 6.1 7.0 62 3.5 W 39 56 21 30 1014.9 1014.9 0.0
28/03:00pm 13.8 5.0 7.3 65 3.2 W 43 57 23 31 1015.0 1015.0 0.0
28/02:30pm 14.0 4.4 6.1 59 3.8 W 46 59 25 32 1014.6 1014.6 0.0
28/02:18pm 14.1 4.6 6.9 62 3.5 W 46 65 25 35 1014.4 1014.4 0.0
28/02:00pm 13.8 2.9 7.1 64 3.3 W 54 67 29 36 1014.2 1014.2 0.0
28/01:56pm 13.7 2.1 6.8 63 3.3 W 57 65 31 35 1014.2 1014.2 0.0
28/01:33pm 13.6 6.7 8.7 72 2.5 WNW 35 54 19 29 1013.9 1013.9 0.0
28/01:30pm 13.9 7.6 8.9 72 2.5 WNW 32 46 17 25 1013.7 1013.7 0.0
28/01:01pm 13.6 5.8 8.4 71 2.6 W 39 57 21 31 1013.6 1013.6 0.0
28/01:00pm 13.6 5.4 8.4 71 2.6 W 41 57 22 31 1013.6 1013.6 0.0
28/12:47pm 14.1 6.8 8.9 71 2.6 W 37 56 20 30 1013.5 1013.5 0.0
28/12:30pm 13.9 5.4 9.3 74 2.3 W 44 57 24 31 1013.3 1013.3 0.0
28/12:00pm 13.6 6.6 9.8 78 2.0 W 37 59 20 32 1013.1 1013.1 0.0
28/11:30am 14.0 5.0 8.8 71 2.6 W 46 67 25 36 1012.8 1012.8 0.0
28/11:00am 14.3 5.8 8.5 68 2.9 W 43 63 23 34 1012.6 1012.6 0.0
28/10:30am 14.2 5.2 8.8 70 2.7 W 46 69 25 37 1012.2 1012.2 0.0
28/10:00am 13.8 5.4 9.6 76 2.2 W 44 65 24 35 1012.0 1012.0 0.0
28/09:31am 13.9 4.2 8.9 72 2.5 W 50 69 27 37 1011.6 1011.6 0.0
28/09:30am 14.1 4.5 9.5 74 2.4 W 50 65 27 35 1011.6 1011.6 0.0
28/09:00am 13.7 3.0 9.4 75 2.2 W 56 74 30 40 1011.1 1011.1 1.0
28/08:30am 12.9 3.3 9.5 80 1.7 W 50 76 27 41 1010.8 1010.8 1.0
28/08:18am 13.6 3.4 10.2 80 1.8 W 54 89 29 48 1010.6 1010.6 1.0
28/08:00am 13.4 4.7 9.8 79 1.9 W 46 69 25 37 1010.4 1010.4 1.0
28/07:30am 12.8 6.5 10.9 88 1.0 W 35 56 19 30 1010.1 1010.1 1.0
28/07:00am 13.1 6.0 10.8 86 1.2 W 39 65 21 35 1009.5 1009.5 0.8
28/06:32am 12.8 6.2 11.4 91 0.7 W 37 61 20 33 1009.3 1009.3 0.8
28/06:30am 13.0 6.4 11.4 90 0.8 W 37 46 20 25 1009.3 1009.3 0.8
28/06:00am 13.6 3.2 10.6 82 1.6 W 56 74 30 40 1008.9 1008.9 0.6
28/05:30am 13.4 3.6 10.2 81 1.7 WNW 52 70 28 38 1008.7 1008.7 0.6
28/05:00am 13.4 4.0 10.2 81 1.7 W 50 76 27 41 1008.6 1008.6 0.6
28/04:30am 13.6 4.8 11.1 85 1.3 W 48 69 26 37 1008.4 1008.4 0.4

Other Formats:

Comma delimited format used in spreadsheet applications
http://www.bom.gov.au/fwo/IDV60801/IDV60801.94826.axf

JavaScript Object Notation format (JSON) in row-major order
http://www.bom.gov.au/fwo/IDV60801/IDV60801.94826.json